createdAt,value
2019-01-04T10:14:50.273Z,27.90
2019-01-04T10:17:22.854Z,27.47
2019-01-04T10:19:52.014Z,26.17
2019-01-04T10:22:21.163Z,31.23
2019-01-04T10:24:50.263Z,24.93
2019-01-04T10:27:19.362Z,25.37
2019-01-04T10:29:48.431Z,25.07
2019-01-04T10:32:17.528Z,25.03
2019-01-04T10:34:46.623Z,22.73
2019-01-04T10:37:15.719Z,22.37
2019-01-04T10:39:44.795Z,23.37
2019-01-04T10:42:13.873Z,21.17
2019-01-04T10:44:43.028Z,25.17
2019-01-04T10:47:12.107Z,22.33
2019-01-04T10:49:41.165Z,24.07
2019-01-04T10:52:10.233Z,28.23
2019-01-04T10:54:39.340Z,28.40
2019-01-04T10:57:08.396Z,25.40
2019-01-04T10:59:37.514Z,26.33
2019-01-04T11:02:06.534Z,24.87
2019-01-04T11:04:35.533Z,25.77
2019-01-04T11:07:04.516Z,28.03
2019-01-04T11:09:33.566Z,25.13
2019-01-04T11:12:02.516Z,25.20
2019-01-04T11:14:31.579Z,24.27
2019-01-04T11:17:00.647Z,22.73
2019-01-04T11:19:29.811Z,20.03
2019-01-04T11:22:34.431Z,23.63
2019-01-04T11:25:42.951Z,20.73
2019-01-04T11:28:18.429Z,21.17
2019-01-04T11:31:24.455Z,17.30
2019-01-04T11:34:00.321Z,20.63
2019-01-04T11:37:05.767Z,16.03
2019-01-04T11:40:11.957Z,15.73
2019-01-04T11:43:06.393Z,13.93
2019-01-04T11:46:10.816Z,13.97
2019-01-04T11:48:59.786Z,15.43
2019-01-04T11:51:55.424Z,13.70
2019-01-04T11:54:29.516Z,14.60
2019-01-04T11:56:58.644Z,15.00
2019-01-04T11:59:27.860Z,14.37
2019-01-04T12:01:56.957Z,16.40
2019-01-04T12:04:26.129Z,16.00
2019-01-04T12:06:56.819Z,17.33
2019-01-04T12:09:25.998Z,14.03
2019-01-04T12:11:55.239Z,14.33
2019-01-04T12:14:24.647Z,14.73
2019-01-04T12:16:53.949Z,16.73
2019-01-04T12:19:23.108Z,15.67
2019-01-04T12:21:52.212Z,13.97
2019-01-04T12:24:22.330Z,13.80
2019-01-04T12:26:51.593Z,12.53
2019-01-04T12:29:20.695Z,16.33
2019-01-04T12:31:49.834Z,16.63
2019-01-04T12:34:18.914Z,17.27
2019-01-04T12:36:48.098Z,14.60
2019-01-04T12:39:17.197Z,14.90
2019-01-04T12:41:46.284Z,15.57
2019-01-04T12:44:15.349Z,17.37
2019-01-04T12:46:44.409Z,15.23
2019-01-04T12:49:13.456Z,15.43
2019-01-04T12:51:42.528Z,18.67
2019-01-04T12:54:11.785Z,17.60
2019-01-04T12:56:40.894Z,15.43
2019-01-04T12:59:10.004Z,15.53
2019-01-04T13:01:39.209Z,13.90
2019-01-04T13:04:08.368Z,10.07
2019-01-04T13:06:37.442Z,10.73
2019-01-04T13:09:07.333Z,10.67
2019-01-04T13:11:36.372Z,10.30
2019-01-04T13:14:05.445Z,13.80
2019-01-04T13:16:34.566Z,13.10
2019-01-04T13:19:03.628Z,10.00
2019-01-04T13:21:32.654Z,11.93
2019-01-04T13:24:01.710Z,9.73
2019-01-04T13:26:30.853Z,11.30
2019-01-04T13:28:59.939Z,10.90
2019-01-04T13:31:29.001Z,11.00
2019-01-04T13:33:58.132Z,11.63
2019-01-04T13:36:27.191Z,12.13
2019-01-04T13:38:56.245Z,13.90
2019-01-04T13:41:25.305Z,12.60
2019-01-04T13:43:54.405Z,11.90
2019-01-04T13:46:23.457Z,17.83
2019-01-04T13:48:52.544Z,15.07
2019-01-04T13:51:21.643Z,16.63
2019-01-04T13:53:50.736Z,16.03
2019-01-04T13:56:19.881Z,16.83
2019-01-04T13:58:49.130Z,17.70
2019-01-04T14:01:18.158Z,16.27
2019-01-04T14:03:47.314Z,19.33
2019-01-04T14:06:16.395Z,21.33
2019-01-04T14:08:45.561Z,21.33
2019-01-04T14:11:14.631Z,21.63
2019-01-04T14:13:43.789Z,20.37
2019-01-04T14:16:12.872Z,18.33
2019-01-04T14:18:41.935Z,22.27
2019-01-04T14:21:11.087Z,18.73
2019-01-04T14:23:40.272Z,19.20
2019-01-04T14:26:09.395Z,19.87
2019-01-04T14:28:38.520Z,20.90
2019-01-04T14:31:07.776Z,19.13
2019-01-04T14:33:36.782Z,22.20
2019-01-04T14:36:06.981Z,24.57
2019-01-04T14:38:36.107Z,23.10
2019-01-04T14:41:05.203Z,22.20
2019-01-04T14:43:34.332Z,24.00
2019-01-04T14:46:03.466Z,28.23
2019-01-04T14:48:32.382Z,29.00
2019-01-04T14:51:01.478Z,28.63
2019-01-04T14:53:30.718Z,29.07
2019-01-04T14:55:59.855Z,29.93
2019-01-04T14:58:29.036Z,27.83
2019-01-04T15:00:58.183Z,24.63
2019-01-04T15:03:27.192Z,27.80
2019-01-04T15:05:56.248Z,26.97
2019-01-04T15:08:25.406Z,29.83
2019-01-04T15:10:54.509Z,30.47
2019-01-04T15:13:23.588Z,26.13
2019-01-04T15:15:52.705Z,25.87
2019-01-04T15:18:21.723Z,22.43
2019-01-04T15:20:50.971Z,26.00
2019-01-04T15:23:20.039Z,22.10
2019-01-04T15:25:49.407Z,25.50
2019-01-04T15:28:18.539Z,27.17
2019-01-04T15:30:47.583Z,24.77
2019-01-04T15:33:16.701Z,26.73
2019-01-04T15:35:46.663Z,29.37
2019-01-04T15:38:16.567Z,28.37
2019-01-04T15:40:45.702Z,25.97
2019-01-04T15:43:14.835Z,28.33
2019-01-04T15:45:43.919Z,28.17
2019-01-04T15:48:12.957Z,30.50
2019-01-04T15:50:42.016Z,31.27
2019-01-04T15:53:11.076Z,32.50
2019-01-04T15:55:40.160Z,27.63
2019-01-04T15:58:09.194Z,25.50
2019-01-04T16:00:38.289Z,28.90
2019-01-04T16:03:07.303Z,30.53
2019-01-04T16:05:36.628Z,33.43
2019-01-04T16:08:05.810Z,34.47
2019-01-04T16:10:34.832Z,33.27
2019-01-04T16:13:04.051Z,32.03
2019-01-04T16:15:33.109Z,29.60
2019-01-04T16:18:02.280Z,34.93
2019-01-04T16:20:31.347Z,27.83
